Terminal Aerodrome Forecast
Issued by NWS Denver/Boulder, CO

Home | Current Version | Previous Version | Text Only | Print | Product List | Glossary On
Versions: 1 2 3 4 5 6 7 8 9 10 11 12 13 14 15 16 17 18 19 20 21 22 23 24 25 26 27 28 29
000
FTUS45 KBOU 191136
TAFDEN
TAF
KDEN 191136Z 1912/2018 21008KT P6SM SKC
     FM191700 17005KT P6SM FEW250
     FM192000 14007KT P6SM FEW120 SCT250
     FM200100 16007KT P6SM SCT120 BKN200
     FM200400 20008KT P6SM SCT110 BKN180
     FM201000 23008KT P6SM VCSH SCT040 BKN070 PROB30 2012/2016 5SM
      -SHSN BKN030 OVC050=

USA.gov is the U.S. government's official web portal to all federal, state and local government web resources and services.